Time;durP1;ratioP1;P1;durP2;ratioP2;P2;SDS_P1;SDS_P2;PMS_P1;PMS_P2;Temp;Humidity;BMP_temperature;BMP_pressure;BME280_temperature;BME280_humidity;BME280_pressure;Samples;Min_cycle;Max_cycle;Signal;HPM_P1;HPM_P2
2023/12/02 00:01:21;;;;;;;42.50;26.48;;;;;;;4.74;100.00;97353.09;5024467;28;20030;-74
2023/12/02 00:03:47;;;;;;;48.72;29.40;;;;;;;4.70;100.00;97346.56;5005001;28;20082;-75
2023/12/02 00:06:12;;;;;;;46.00;28.25;;;;;;;4.71;100.00;97331.72;5022468;28;20065;-76
2023/12/02 00:08:38;;;;;;;45.45;27.60;;;;;;;4.82;100.00;97313.94;5024137;28;20477;-75
2023/12/02 00:11:03;;;;;;;44.47;28.95;;;;;;;4.81;100.00;97306.25;5020825;28;20046;-75
2023/12/02 00:13:29;;;;;;;48.03;29.50;;;;;;;4.74;100.00;97305.25;5021585;28;20033;-75
2023/12/02 00:15:54;;;;;;;49.30;29.00;;;;;;;4.80;100.00;97294.16;5023899;28;20514;-76
2023/12/02 00:18:20;;;;;;;52.42;29.63;;;;;;;4.78;100.00;97296.94;5022609;28;20537;-75
2023/12/02 00:20:45;;;;;;;45.22;28.60;;;;;;;4.68;100.00;97295.44;5022372;28;20034;-74
2023/12/02 00:23:11;;;;;;;48.25;29.75;;;;;;;4.69;100.00;97287.47;5027758;28;20091;-74
2023/12/02 00:25:36;;;;;;;44.80;28.30;;;;;;;4.67;100.00;97283.34;5021464;28;20501;-76
2023/12/02 00:28:02;;;;;;;48.58;28.48;;;;;;;4.70;100.00;97293.50;5024367;28;20072;-76
2023/12/02 00:30:27;;;;;;;49.97;29.02;;;;;;;4.68;100.00;97295.44;5021302;28;20504;-75
2023/12/02 00:32:53;;;;;;;46.13;28.67;;;;;;;4.68;100.00;97296.25;5023258;28;20049;-76
2023/12/02 00:35:18;;;;;;;48.10;28.67;;;;;;;4.66;100.00;97297.38;5022205;28;20083;-74
2023/12/02 00:37:45;;;;;;;48.33;31.02;;;;;;;4.64;100.00;97300.19;5021795;28;20037;-74
2023/12/02 00:40:10;;;;;;;51.65;30.52;;;;;;;4.61;100.00;97291.84;5023009;28;20029;-74
2023/12/02 00:42:36;;;;;;;51.45;31.20;;;;;;;4.70;100.00;97288.28;5021011;28;20085;-73
2023/12/02 00:45:01;;;;;;;46.83;29.85;;;;;;;4.72;100.00;97286.31;5023915;28;20033;-74
2023/12/02 00:47:27;;;;;;;54.58;30.02;;;;;;;4.64;100.00;97294.13;5019873;28;20033;-76
2023/12/02 00:49:52;;;;;;;50.72;30.52;;;;;;;4.66;100.00;97289.56;5005400;28;20042;-74
2023/12/02 00:52:18;;;;;;;47.13;28.85;;;;;;;4.71;100.00;97289.91;5023763;28;20112;-73
2023/12/02 00:54:44;;;;;;;48.85;30.55;;;;;;;4.79;100.00;97282.06;5022033;28;20436;-73
2023/12/02 00:57:09;;;;;;;48.70;29.83;;;;;;;4.74;100.00;97285.16;5021333;28;20394;-74
2023/12/02 00:59:35;;;;;;;49.00;29.13;;;;;;;4.66;100.00;97281.72;5023782;28;20025;-74
2023/12/02 01:02:00;;;;;;;52.00;31.45;;;;;;;4.77;100.00;97278.81;5020081;28;20426;-74
2023/12/02 01:04:26;;;;;;;47.70;29.45;;;;;;;4.80;100.00;97278.47;5023516;28;20080;-75
2023/12/02 01:06:51;;;;;;;53.45;31.65;;;;;;;4.73;100.00;97264.44;5020911;28;20062;-74
2023/12/02 01:09:17;;;;;;;43.00;28.75;;;;;;;4.72;100.00;97254.94;5021652;28;20030;-73
2023/12/02 01:11:42;;;;;;;47.17;29.35;;;;;;;4.81;100.00;97248.78;5021985;28;20055;-73
2023/12/02 01:14:07;;;;;;;49.67;30.45;;;;;;;4.89;100.00;97251.38;5020637;28;20117;-74
2023/12/02 01:16:33;;;;;;;48.15;30.45;;;;;;;4.93;100.00;97242.25;5023764;28;20038;-74
2023/12/02 01:18:58;;;;;;;47.38;29.20;;;;;;;4.97;100.00;97224.41;5019995;28;20026;-75
2023/12/02 01:21:24;;;;;;;48.53;29.92;;;;;;;5.00;100.00;97224.94;5022973;28;20132;-74
2023/12/02 01:23:49;;;;;;;44.05;29.20;;;;;;;5.02;100.00;97230.78;5023709;28;20033;-75
2023/12/02 01:26:15;;;;;;;47.95;29.63;;;;;;;5.06;100.00;97229.50;5021080;28;20076;-75
2023/12/02 01:28:40;;;;;;;47.20;28.98;;;;;;;5.09;100.00;97231.78;5022337;28;20057;-76
2023/12/02 01:31:06;;;;;;;45.22;29.15;;;;;;;4.91;100.00;97223.28;5020335;28;20477;-75
2023/12/02 01:33:31;;;;;;;48.22;30.35;;;;;;;4.85;100.00;97229.97;5023607;28;20025;-76
2023/12/02 01:35:57;;;;;;;48.95;30.90;;;;;;;5.00;100.00;97217.09;5001990;28;20104;-75
2023/12/02 01:38:22;;;;;;;44.60;29.75;;;;;;;5.06;100.00;97211.19;5022140;28;20034;-74
2023/12/02 01:40:48;;;;;;;45.72;29.73;;;;;;;5.13;100.00;97217.38;5020691;28;20034;-74
2023/12/02 01:43:27;;;;;;;42.40;28.75;;;;;;;5.16;100.00;97206.59;5021237;28;20034;-73
2023/12/02 01:45:53;;;;;;;47.63;28.38;;;;;;;5.07;100.00;97207.59;5020436;28;20034;-74
2023/12/02 01:48:25;;;;;;;46.95;29.75;;;;;;;5.12;100.00;97205.31;5021963;28;20022;-74
2023/12/02 01:50:52;;;;;;;45.05;29.25;;;;;;;5.16;100.00;97196.16;5020923;28;20460;-76
2023/12/02 01:53:18;;;;;;;45.70;29.15;;;;;;;5.18;100.00;97199.41;5024845;28;20022;-75
2023/12/02 01:55:44;;;;;;;43.47;27.60;;;;;;;5.23;100.00;97206.75;5021091;28;20041;-74
2023/12/02 01:58:10;;;;;;;47.15;28.95;;;;;;;5.27;100.00;97198.41;5017778;28;20429;-76
2023/12/02 02:00:35;;;;;;;42.92;27.88;;;;;;;5.30;100.00;97212.97;5002536;28;20501;-75
2023/12/02 02:03:01;;;;;;;44.50;27.35;;;;;;;5.29;100.00;97204.31;5016726;28;20083;-75
2023/12/02 02:05:27;;;;;;;40.90;27.88;;;;;;;5.29;100.00;97212.16;5021828;28;20033;-75
2023/12/02 02:07:52;;;;;;;44.38;27.27;;;;;;;5.13;100.00;97230.44;5020159;28;20097;-75
2023/12/02 02:10:20;;;;;;;45.33;29.05;;;;;;;5.03;100.00;97227.19;5020985;28;20454;-74
2023/12/02 02:12:46;;;;;;;42.38;28.30;;;;;;;5.10;100.00;97222.13;5020512;28;20124;-75
2023/12/02 02:15:12;;;;;;;45.63;28.65;;;;;;;5.13;100.00;97222.59;5020600;28;20113;-75
2023/12/02 02:17:37;;;;;;;47.40;28.83;;;;;;;5.15;100.00;97225.06;5022373;28;20034;-75
2023/12/02 02:20:04;;;;;;;45.53;29.48;;;;;;;5.10;100.00;97222.94;5019166;28;20061;-74
2023/12/02 02:22:29;;;;;;;45.88;28.73;;;;;;;5.03;100.00;97224.59;5022586;28;20039;-74
2023/12/02 02:24:54;;;;;;;44.05;28.27;;;;;;;5.11;100.00;97208.09;5019252;28;20117;-75
2023/12/02 02:27:20;;;;;;;46.28;28.45;;;;;;;4.93;100.00;97208.25;5021172;28;20089;-75
2023/12/02 02:29:45;;;;;;;48.25;28.98;;;;;;;5.00;100.00;97214.47;5024136;28;20142;-73
2023/12/02 02:32:11;;;;;;;45.22;30.10;;;;;;;5.08;100.00;97216.25;5022595;28;20112;-74
2023/12/02 02:34:40;;;;;;;45.33;28.88;;;;;;;5.07;100.00;97210.19;5026747;28;20048;-75
2023/12/02 02:37:05;;;;;;;48.50;30.13;;;;;;;5.02;100.00;97204.66;5022783;28;20370;-74
2023/12/02 02:39:31;;;;;;;46.55;30.15;;;;;;;4.95;100.00;97193.22;5022220;28;20048;-74
2023/12/02 02:41:56;;;;;;;48.83;30.25;;;;;;;4.92;100.00;97190.94;5024126;28;20030;-74
2023/12/02 02:44:22;;;;;;;49.88;31.08;;;;;;;4.89;100.00;97188.66;5023438;28;20426;-75
2023/12/02 02:46:48;;;;;;;46.08;29.63;;;;;;;4.87;100.00;97185.41;5023714;28;20465;-75
2023/12/02 02:49:13;;;;;;;47.35;29.33;;;;;;;4.83;100.00;97178.88;5026783;28;20116;-74
2023/12/02 02:51:40;;;;;;;44.03;28.77;;;;;;;4.76;100.00;97172.69;5019097;28;20054;-75
2023/12/02 02:54:06;;;;;;;48.63;30.35;;;;;;;4.75;100.00;97184.09;5021852;28;20029;-74
2023/12/02 02:56:31;;;;;;;50.15;31.77;;;;;;;4.73;100.00;97163.34;5021422;28;20088;-75
2023/12/02 02:58:57;;;;;;;51.53;30.58;;;;;;;4.76;100.00;97176.09;5018294;28;20865;-75
2023/12/02 03:01:22;;;;;;;53.78;32.03;;;;;;;4.78;100.00;97166.28;5003474;28;20114;-75
2023/12/02 03:03:48;;;;;;;47.80;30.13;;;;;;;4.80;100.00;97159.13;5019827;28;20117;-75
2023/12/02 03:06:13;;;;;;;50.42;29.80;;;;;;;4.81;100.00;97157.31;5020067;28;20026;-74
2023/12/02 03:08:39;;;;;;;49.33;30.73;;;;;;;4.85;100.00;97166.44;5021122;28;20029;-76
2023/12/02 03:11:06;;;;;;;47.33;29.13;;;;;;;4.84;100.00;97159.59;5021435;28;20057;-73
2023/12/02 03:13:31;;;;;;;47.45;29.70;;;;;;;4.82;100.00;97145.91;5025546;28;20017;-74
2023/12/02 03:15:57;;;;;;;48.40;29.02;;;;;;;4.81;100.00;97150.31;5022254;28;20838;-75
2023/12/02 03:18:23;;;;;;;42.40;27.55;;;;;;;4.78;100.00;97158.44;5025049;28;20327;-76
2023/12/02 03:20:48;;;;;;;46.83;29.17;;;;;;;4.81;100.00;97154.72;5023402;28;20486;-74
2023/12/02 03:23:15;;;;;;;44.45;28.75;;;;;;;4.84;100.00;97156.97;5026690;28;20033;-75
2023/12/02 03:25:40;;;;;;;41.13;28.42;;;;;;;4.84;100.00;97164.81;5024606;28;20030;-75
2023/12/02 03:28:06;;;;;;;42.20;27.23;;;;;;;4.77;100.00;97164.66;5022115;28;20044;-75
2023/12/02 03:30:32;;;;;;;43.47;27.02;;;;;;;4.76;100.00;97157.81;5025349;28;20052;-75
2023/12/02 03:32:57;;;;;;;45.13;27.55;;;;;;;4.79;100.00;97146.19;5021699;28;20030;-75
2023/12/02 03:35:23;;;;;;;44.20;26.92;;;;;;;4.78;100.00;97144.56;5024718;28;20034;-75
2023/12/02 03:37:49;;;;;;;40.22;27.55;;;;;;;4.83;100.00;97143.09;5023175;28;20116;-74
2023/12/02 03:40:14;;;;;;;44.50;27.00;;;;;;;4.88;100.00;97155.69;5023070;28;20034;-74
2023/12/02 03:42:40;;;;;;;42.00;26.13;;;;;;;4.85;100.00;97156.00;5024280;28;20469;-73
2023/12/02 03:45:06;;;;;;;40.28;26.38;;;;;;;4.84;100.00;97162.19;5021527;28;20033;-75
2023/12/02 03:47:32;;;;;;;36.13;26.35;;;;;;;4.82;100.00;97166.78;5025356;28;20076;-74
2023/12/02 03:49:58;;;;;;;41.90;26.73;;;;;;;4.80;100.00;97164.34;5021958;28;20182;-74
2023/12/02 03:52:23;;;;;;;41.30;26.38;;;;;;;4.86;100.00;97165.47;5027467;28;20041;-76
2023/12/02 03:54:49;;;;;;;40.53;25.05;;;;;;;4.92;100.00;97167.44;5022563;28;20091;-75
2023/12/02 03:57:15;;;;;;;38.75;26.77;;;;;;;4.93;100.00;97163.84;5022886;28;20038;-74
2023/12/02 03:59:40;;;;;;;41.17;25.67;;;;;;;4.91;100.00;97160.56;5023728;28;20065;-75
2023/12/02 04:02:06;;;;;;;40.58;25.45;;;;;;;4.91;100.00;97156.16;5021306;28;20077;-75
2023/12/02 04:04:31;;;;;;;42.80;25.55;;;;;;;4.98;100.00;97156.31;5024986;28;20061;-75
2023/12/02 04:06:56;;;;;;;39.85;25.20;;;;;;;5.03;100.00;97154.00;5021504;28;20057;-75
2023/12/02 04:09:22;;;;;;;39.72;25.42;;;;;;;4.94;100.00;97157.63;5023936;28;20040;-74
2023/12/02 04:11:48;;;;;;;38.83;25.08;;;;;;;4.95;100.00;97167.09;5022314;28;20037;-75
2023/12/02 04:14:13;;;;;;;36.22;24.85;;;;;;;4.90;100.00;97174.59;5022943;28;20045;-74
2023/12/02 04:16:40;;;;;;;39.88;26.33;;;;;;;4.97;100.00;97175.59;5023571;28;20140;-76
2023/12/02 04:19:09;;;;;;;38.85;25.50;;;;;;;4.94;100.00;97181.16;5021160;28;20026;-73
2023/12/02 04:21:36;;;;;;;34.95;24.38;;;;;;;4.91;100.00;97181.47;5024135;28;20099;-75
2023/12/02 04:24:03;;;;;;;40.33;27.02;;;;;;;4.94;100.00;97181.16;5023856;28;20041;-76
2023/12/02 04:26:28;;;;;;;37.78;24.92;;;;;;;5.01;100.00;97176.88;5024306;28;20029;-75
2023/12/02 04:28:54;;;;;;;43.70;25.88;;;;;;;4.95;100.00;97172.31;5021551;28;20045;-75
2023/12/02 04:31:20;;;;;;;37.10;25.02;;;;;;;4.92;100.00;97173.47;5022977;28;20070;-74
2023/12/02 04:33:45;;;;;;;40.03;24.88;;;;;;;4.91;100.00;97176.25;5022245;28;20499;-74
2023/12/02 04:36:12;;;;;;;39.95;25.77;;;;;;;4.85;100.00;97172.50;5021949;28;20386;-75
2023/12/02 04:38:37;;;;;;;38.47;25.90;;;;;;;4.89;100.00;97172.97;5024093;28;20087;-75
2023/12/02 04:41:03;;;;;;;39.67;25.10;;;;;;;4.94;100.00;97170.69;5020386;28;20042;-74
2023/12/02 04:43:28;;;;;;;40.75;26.30;;;;;;;4.99;100.00;97163.19;5024246;28;20036;-75
2023/12/02 04:45:54;;;;;;;43.47;27.15;;;;;;;5.01;100.00;97160.41;5021497;28;20133;-75
2023/12/02 04:48:19;;;;;;;38.38;25.33;;;;;;;5.03;100.00;97158.41;5022368;28;20037;-75
2023/12/02 04:50:45;;;;;;;37.15;25.25;;;;;;;4.99;100.00;97163.19;5022156;28;20488;-75
2023/12/02 04:53:10;;;;;;;38.22;25.83;;;;;;;4.98;100.00;97161.53;5024413;28;20058;-75
2023/12/02 04:55:36;;;;;;;40.35;26.80;;;;;;;5.02;100.00;97157.59;5023552;28;20073;-74
2023/12/02 04:58:01;;;;;;;40.13;25.08;;;;;;;4.97;100.00;97149.44;5020080;28;20037;-75
2023/12/02 05:00:27;;;;;;;40.33;25.25;;;;;;;5.08;100.00;97150.91;5023444;28;20030;-75
2023/12/02 05:02:53;;;;;;;40.83;25.45;;;;;;;5.03;100.00;97153.19;5030156;28;20090;-74
2023/12/02 05:05:18;;;;;;;41.55;26.35;;;;;;;5.06;100.00;97158.94;5031334;28;20040;-74
2023/12/02 05:07:44;;;;;;;37.80;25.42;;;;;;;5.08;100.00;97146.47;5031091;28;20033;-73
2023/12/02 05:10:10;;;;;;;41.03;26.50;;;;;;;5.03;100.00;97148.78;5013433;28;20033;-74
2023/12/02 05:12:36;;;;;;;39.72;26.63;;;;;;;5.08;100.00;97153.50;5031406;28;20041;-74
2023/12/02 05:15:02;;;;;;;35.75;24.13;;;;;;;5.08;100.00;97149.09;5030996;28;20037;-74
2023/12/02 05:17:28;;;;;;;39.25;26.55;;;;;;;5.10;100.00;97152.38;5008406;28;20037;-77
2023/12/02 05:19:53;;;;;;;37.75;25.58;;;;;;;5.08;100.00;97149.09;5020136;28;20124;-74
2023/12/02 05:22:19;;;;;;;35.72;24.85;;;;;;;5.05;100.00;97143.41;5024737;28;20122;-73
2023/12/02 05:24:45;;;;;;;39.47;26.08;;;;;;;5.04;100.00;97147.00;5025613;28;20037;-74
2023/12/02 05:27:10;;;;;;;40.92;26.05;;;;;;;4.97;100.00;97153.84;5024357;28;20029;-73
2023/12/02 05:29:36;;;;;;;41.20;25.98;;;;;;;5.02;100.00;97151.56;5023426;28;20466;-74
2023/12/02 05:32:01;;;;;;;40.75;27.30;;;;;;;5.08;100.00;97151.72;5026923;28;20353;-73
2023/12/02 05:34:27;;;;;;;38.38;26.00;;;;;;;5.11;100.00;97146.16;5028177;28;20037;-72
2023/12/02 05:36:52;;;;;;;39.13;25.45;;;;;;;5.14;100.00;97148.44;5020598;28;20061;-73
2023/12/02 05:39:18;;;;;;;38.53;25.40;;;;;;;5.18;100.00;97154.97;5018351;28;20014;-73
2023/12/02 05:41:43;;;;;;;37.28;25.20;;;;;;;5.17;100.00;97165.59;5018781;28;20127;-74
2023/12/02 05:44:09;;;;;;;37.58;24.60;;;;;;;5.13;100.00;97170.31;5021392;28;20072;-74
2023/12/02 05:46:36;;;;;;;35.38;23.52;;;;;;;5.08;100.00;97174.41;5018716;28;20029;-73
2023/12/02 05:49:01;;;;;;;37.47;24.77;;;;;;;4.99;100.00;97181.47;5021783;28;20102;-73
2023/12/02 05:51:27;;;;;;;38.22;23.20;;;;;;;4.92;100.00;97185.72;5018949;28;20109;-74
2023/12/02 05:53:52;;;;;;;32.15;22.17;;;;;;;4.91;100.00;97186.69;5022385;28;20450;-73
2023/12/02 05:56:19;;;;;;;31.80;23.13;;;;;;;4.96;100.00;97189.63;5020573;28;20030;-74
2023/12/02 05:58:45;;;;;;;28.10;20.40;;;;;;;4.94;100.00;97184.59;5021894;28;20052;-75
2023/12/02 06:01:11;;;;;;;35.58;22.40;;;;;;;4.95;100.00;97188.81;5025072;28;20087;-73
2023/12/02 06:03:36;;;;;;;33.38;21.58;;;;;;;4.94;100.00;97181.16;5022788;28;20086;-73
2023/12/02 06:06:02;;;;;;;29.70;20.83;;;;;;;4.99;100.00;97194.53;5024797;28;20098;-73
2023/12/02 06:08:27;;;;;;;31.40;21.35;;;;;;;5.01;100.00;97189.94;5018837;28;20030;-74
2023/12/02 06:10:54;;;;;;;31.88;21.55;;;;;;;5.00;100.00;97196.19;5020690;28;20196;-73
2023/12/02 06:13:20;;;;;;;28.25;20.55;;;;;;;5.05;100.00;97199.09;5019843;28;20474;-73
2023/12/02 06:15:45;;;;;;;28.60;20.73;;;;;;;5.05;100.00;97209.56;5019629;28;20037;-74
2023/12/02 06:18:11;;;;;;;28.98;20.42;;;;;;;4.99;100.00;97210.22;5021207;28;20018;-74
2023/12/02 06:20:36;;;;;;;32.88;21.85;;;;;;;4.97;100.00;97212.19;5018423;28;20419;-74
2023/12/02 06:23:01;;;;;;;34.03;21.92;;;;;;;4.98;100.00;97219.03;5021565;28;20040;-75
2023/12/02 06:25:27;;;;;;;29.75;20.60;;;;;;;5.02;100.00;97235.19;5021201;28;20586;-74
2023/12/02 06:27:53;;;;;;;33.80;22.38;;;;;;;5.02;100.00;97241.25;5019154;28;20029;-74
2023/12/02 06:30:19;;;;;;;30.67;20.65;;;;;;;4.96;100.00;97254.97;5020069;28;20385;-72
2023/12/02 06:32:44;;;;;;;31.65;21.05;;;;;;;4.94;100.00;97255.16;5022884;28;20036;-74
2023/12/02 06:35:10;;;;;;;30.92;21.48;;;;;;;4.94;100.00;97254.34;5027123;28;20037;-72
2023/12/02 06:37:36;;;;;;;32.90;21.90;;;;;;;5.00;100.00;97263.31;5021250;28;20540;-74
2023/12/02 06:40:03;;;;;;;34.40;22.73;;;;;;;5.05;100.00;97269.69;5024749;28;20071;-74
2023/12/02 06:42:28;;;;;;;33.67;23.10;;;;;;;5.05;100.00;97287.97;5022382;28;20053;-71
2023/12/02 06:44:54;;;;;;;36.10;23.55;;;;;;;5.00;100.00;97295.50;5023649;28;20158;-72
2023/12/02 06:47:19;;;;;;;34.63;22.88;;;;;;;5.02;100.00;97301.34;5023768;28;20037;-74
2023/12/02 06:49:44;;;;;;;42.17;25.23;;;;;;;4.92;100.00;97292.88;5022782;28;20521;-74
2023/12/02 06:52:10;;;;;;;34.92;24.02;;;;;;;5.01;100.00;97302.34;5024245;28;20025;-71
2023/12/02 06:54:38;;;;;;;34.83;23.10;;;;;;;5.11;100.00;97292.56;5025035;28;20053;-73
2023/12/02 06:57:05;;;;;;;33.17;22.10;;;;;;;5.17;100.00;97289.28;5020736;28;20100;-72
2023/12/02 06:59:30;;;;;;;35.78;23.77;;;;;;;5.21;100.00;97285.34;5056209;22;20432;-81
2023/12/02 07:01:57;;;;;;;35.72;23.60;;;;;;;5.26;100.00;97296.13;5084406;28;20036;-82
2023/12/02 07:04:23;;;;;;;32.40;22.88;;;;;;;5.29;100.00;97287.97;5074795;28;20017;-82
2023/12/02 07:06:49;;;;;;;33.75;23.95;;;;;;;5.34;100.00;97290.09;5110743;28;20032;-81
2023/12/02 07:09:15;;;;;;;33.70;22.73;;;;;;;5.33;100.00;97291.88;5079586;28;20029;-83
2023/12/02 07:11:40;;;;;;;31.98;23.20;;;;;;;5.29;100.00;97293.22;5106485;28;20099;-87
2023/12/02 07:14:06;;;;;;;37.72;23.45;;;;;;;5.22;100.00;97294.84;5092732;28;20028;-82
2023/12/02 07:16:32;;;;;;;35.90;24.23;;;;;;;5.14;100.00;97302.66;5088846;28;20037;-83
2023/12/02 07:18:58;;;;;;;41.25;25.67;;;;;;;5.20;100.00;97301.19;5077173;28;20023;-82
2023/12/02 07:21:23;;;;;;;36.42;24.58;;;;;;;5.17;100.00;97297.13;5084301;28;20036;-82
2023/12/02 07:23:49;;;;;;;38.88;25.55;;;;;;;5.13;100.00;97300.22;5080045;28;20032;-81
2023/12/02 07:26:15;;;;;;;37.95;25.50;;;;;;;5.13;100.00;97301.03;5055366;28;20032;-81
2023/12/02 07:28:42;;;;;;;42.22;27.58;;;;;;;5.21;100.00;97298.44;5062878;28;20036;-83
2023/12/02 07:31:15;;;;;;;39.17;25.92;;;;;;;5.30;100.00;97292.19;5090374;28;20479;-81
2023/12/02 07:33:41;;;;;;;38.67;25.83;;;;;;;5.38;100.00;97298.41;5075483;28;20036;-78
2023/12/02 07:36:10;;;;;;;43.25;27.30;;;;;;;5.44;100.00;97302.97;5084348;28;20059;-79
2023/12/02 07:38:35;;;;;;;39.13;26.73;;;;;;;5.48;100.00;97320.78;5067843;28;20033;-80
2023/12/02 07:41:01;;;;;;;41.70;27.63;;;;;;;5.53;100.00;97328.16;5081770;28;20032;-78
2023/12/02 07:43:27;;;;;;;43.92;29.25;;;;;;;5.57;100.00;97350.38;5082663;28;20068;-79
2023/12/02 07:45:52;;;;;;;42.50;28.38;;;;;;;5.56;100.00;97339.09;5086146;28;20077;-79
2023/12/02 07:48:18;;;;;;;42.45;28.15;;;;;;;5.57;100.00;97350.38;5081825;28;20033;-79
2023/12/02 07:50:44;;;;;;;40.92;27.75;;;;;;;5.61;100.00;97362.97;5084386;28;20114;-79
2023/12/02 07:53:09;;;;;;;47.78;26.55;;;;;;;5.66;100.00;97365.09;5085083;28;20061;-79
2023/12/02 07:55:35;;;;;;;36.95;25.85;;;;;;;5.59;100.00;97364.94;5086233;28;20036;-79
2023/12/02 07:58:01;;;;;;;39.25;26.20;;;;;;;5.64;100.00;97373.13;5065246;28;20028;-79
2023/12/02 08:00:28;;;;;;;40.67;26.77;;;;;;;5.70;100.00;97372.47;5090863;28;20060;-78
2023/12/02 08:02:54;;;;;;;40.20;27.42;;;;;;;5.75;100.00;97374.56;5071459;28;20097;-79
2023/12/02 08:05:19;;;;;;;38.08;25.58;;;;;;;5.78;100.00;97389.94;5092609;28;20028;-78
2023/12/02 08:07:46;;;;;;;35.28;25.73;;;;;;;5.82;100.00;97400.91;5088109;28;20036;-77
2023/12/02 08:10:11;;;;;;;40.88;26.88;;;;;;;5.83;100.00;97408.59;5088428;28;20025;-79
2023/12/02 08:12:37;;;;;;;39.35;26.25;;;;;;;5.77;100.00;97415.28;5090320;28;20039;-77
2023/12/02 08:15:04;;;;;;;35.33;25.50;;;;;;;5.72;100.00;97424.59;5085393;28;20059;-77
2023/12/02 08:17:30;;;;;;;36.90;25.00;;;;;;;5.75;100.00;97437.38;5087300;28;20189;-77
2023/12/02 08:19:55;;;;;;;35.67;22.90;;;;;;;5.68;100.00;97447.69;5083330;28;20483;-77
2023/12/02 08:22:24;;;;;;;33.90;23.85;;;;;;;5.76;100.00;97454.72;5081904;28;20024;-78
2023/12/02 08:24:51;;;;;;;31.73;22.17;;;;;;;5.78;100.00;97465.81;5085190;28;20043;-77
2023/12/02 08:27:17;;;;;;;37.15;22.80;;;;;;;5.78;100.00;97458.78;5084326;28;20024;-78
2023/12/02 08:29:43;;;;;;;33.10;23.48;;;;;;;5.84;100.00;97457.31;5064626;28;20036;-78
2023/12/02 08:32:08;;;;;;;35.55;23.98;;;;;;;5.82;100.00;97464.53;5083091;28;20025;-79
2023/12/02 08:34:34;;;;;;;33.85;24.05;;;;;;;5.86;100.00;97476.31;5066576;28;20039;-81
2023/12/02 08:36:59;;;;;;;35.30;23.95;;;;;;;5.89;100.00;97481.22;5087571;28;20051;-79
2023/12/02 08:39:25;;;;;;;39.65;24.90;;;;;;;5.89;100.00;97491.69;5081746;28;20055;-77
2023/12/02 08:41:50;;;;;;;36.10;25.20;;;;;;;5.85;100.00;97495.59;5081118;28;20111;-78
2023/12/02 08:44:16;;;;;;;38.47;25.88;;;;;;;5.88;100.00;97500.56;5063047;28;20024;-81
2023/12/02 08:46:41;;;;;;;36.63;25.80;;;;;;;5.94;100.00;97507.75;5064456;28;20036;-78
2023/12/02 08:49:07;;;;;;;38.22;26.85;;;;;;;5.96;100.00;97513.63;5079706;28;20035;-78
2023/12/02 08:51:33;;;;;;;42.10;28.23;;;;;;;5.98;100.00;97506.44;5061923;28;20043;-79
2023/12/02 08:54:00;;;;;;;44.05;28.40;;;;;;;5.91;100.00;97515.94;5084188;28;20036;-79
2023/12/02 08:56:29;;;;;;;46.65;29.83;;;;;;;5.92;100.00;97530.66;5079890;28;20036;-79
2023/12/02 08:58:55;;;;;;;47.10;30.45;;;;;;;5.96;100.00;97525.91;5061524;28;20054;-77
2023/12/02 09:01:21;;;;;;;42.15;28.75;;;;;;;5.98;100.00;97524.78;5079928;28;20342;-77
2023/12/02 09:03:47;;;;;;;45.33;30.13;;;;;;;6.05;100.00;97533.63;5080582;28;20043;-79
2023/12/02 09:06:13;;;;;;;47.45;29.15;;;;;;;6.10;100.00;97541.78;5082639;28;20020;-77
2023/12/02 09:08:38;;;;;;;46.58;30.45;;;;;;;6.11;100.00;97538.19;5080663;28;20127;-79
2023/12/02 09:11:05;;;;;;;46.20;31.05;;;;;;;6.14;100.00;97543.09;5060154;28;20044;-77
2023/12/02 09:13:39;;;;;;;45.08;30.10;;;;;;;6.22;100.00;97539.66;5081098;28;20036;-78
2023/12/02 09:16:21;;;;;;;40.88;28.92;;;;;;;6.28;100.00;97548.66;5083951;28;20032;-78
2023/12/02 09:18:48;;;;;;;46.45;29.35;;;;;;;6.35;100.00;97547.03;5078770;28;20181;-78
2023/12/02 09:21:43;;;;;;;43.30;29.13;;;;;;;6.38;100.00;97554.53;5087267;28;20032;-78
2023/12/02 09:24:44;;;;;;;41.60;28.13;;;;;;;6.32;100.00;97565.69;5086518;28;20086;-80
2023/12/02 09:27:29;;;;;;;;;;;;;;;6.40;100.00;97573.53;5044174;28;20051;-78
2023/12/02 09:29:55;;;;;;;41.25;28.50;;;;;;;6.45;100.00;97577.31;5081870;28;19971;-78
2023/12/02 09:32:24;;;;;;;43.08;29.85;;;;;;;6.45;100.00;97576.47;5063368;28;20074;-77
2023/12/02 09:34:59;;;;;;;40.25;29.50;;;;;;;6.40;100.00;97578.78;5080801;28;20038;-78
2023/12/02 09:37:49;;;;;;;43.45;29.75;;;;;;;6.51;100.00;97586.31;5081393;28;20031;-78
2023/12/02 09:40:21;;;;;;;41.97;27.92;;;;;;;6.60;100.00;97592.38;5082255;28;20130;-78
2023/12/02 09:42:59;;;;;;;42.47;28.67;;;;;;;6.67;100.00;97594.16;5080938;28;20070;-78
2023/12/02 09:45:32;;;;;;;43.35;29.17;;;;;;;6.71;100.00;97605.97;5081129;28;20025;-78
2023/12/02 09:48:00;;;;;;;40.10;28.02;;;;;;;6.72;100.00;97609.38;5082204;28;20516;-78
2023/12/02 09:50:33;;;;;;;43.83;30.00;;;;;;;6.74;100.00;97603.00;5080079;28;20480;-78
2023/12/02 09:53:11;;;;;;;41.40;29.30;;;;;;;6.80;100.00;97615.44;5077720;28;20556;-77
2023/12/02 09:55:43;;;;;;;50.58;31.25;;;;;;;6.75;100.00;97628.22;5081777;28;20043;-77
2023/12/02 09:58:15;;;;;;;47.20;30.25;;;;;;;6.83;100.00;97617.72;5076997;28;20090;-77
2023/12/02 10:01:02;;;;;;;43.30;29.20;;;;;;;6.89;100.00;97622.28;5080137;28;20127;-77
2023/12/02 10:03:34;;;;;;;41.60;28.15;;;;;;;6.84;100.00;97621.16;5067714;28;20396;-78
2023/12/02 10:06:04;;;;;;;45.25;30.67;;;;;;;6.84;100.00;97635.09;5078653;28;20036;-78
2023/12/02 10:08:55;;;;;;;42.67;29.08;;;;;;;6.91;100.00;97628.19;5081199;28;20552;-80
2023/12/02 10:11:35;;;;;;;41.13;28.63;;;;;;;6.96;100.00;97622.44;5091839;28;20040;-78
2023/12/02 10:14:11;;;;;;;41.50;28.47;;;;;;;7.01;100.00;97628.00;5097568;28;20060;-81
2023/12/02 10:16:39;;;;;;;40.65;27.63;;;;;;;6.99;100.00;97628.19;5084732;28;20502;-80
2023/12/02 10:19:12;;;;;;;42.83;27.80;;;;;;;7.01;100.00;97629.84;5086682;28;20048;-80
2023/12/02 10:21:42;;;;;;;44.20;28.10;;;;;;;7.08;100.00;97631.59;5079563;28;20103;-78
2023/12/02 10:24:14;;;;;;;36.42;26.70;;;;;;;7.12;100.00;97637.34;5082399;28;20107;-82
2023/12/02 10:26:58;;;;;;;39.45;26.75;;;;;;;7.08;100.00;97636.03;5081165;28;20039;-80
2023/12/02 10:29:35;;;;;;;38.65;26.33;;;;;;;7.15;100.00;97642.25;5058457;28;20126;-80
2023/12/02 10:32:03;;;;;;;38.63;26.92;;;;;;;7.22;100.00;97643.22;5084587;28;20414;-79
2023/12/02 10:34:38;;;;;;;39.53;26.63;;;;;;;7.26;100.00;97657.63;5088656;28;20426;-80
2023/12/02 10:37:04;;;;;;;40.60;27.05;;;;;;;7.31;100.00;97657.94;5062087;28;20087;-80
2023/12/02 10:39:39;;;;;;;34.00;25.25;;;;;;;7.37;100.00;97670.38;5083690;28;20032;-79
2023/12/02 10:42:05;;;;;;;33.95;24.05;;;;;;;7.42;100.00;97675.97;5084587;28;20036;-79
2023/12/02 10:44:32;;;;;;;28.23;22.10;;;;;;;7.43;100.00;97687.25;5060294;28;20534;-80
2023/12/02 10:47:03;;;;;;;30.67;20.55;;;;;;;7.50;100.00;97686.41;5082479;28;20088;-80
2023/12/02 10:49:30;;;;;;;28.92;21.17;;;;;;;7.52;100.00;97692.34;5084262;28;20028;-79
2023/12/02 10:51:58;;;;;;;27.30;19.58;;;;;;;7.57;100.00;97684.75;5096026;28;20434;-79
2023/12/02 10:54:28;;;;;;;28.00;20.05;;;;;;;7.64;100.00;97690.97;5093586;28;20055;-79
2023/12/02 10:57:10;;;;;;;27.83;20.23;;;;;;;7.68;100.00;97680.94;5070086;28;20040;-79
2023/12/02 11:00:12;;;;;;;30.33;21.40;;;;;;;7.76;100.00;97687.00;5075682;28;20282;-80
2023/12/02 11:02:53;;;;;;;26.90;20.65;;;;;;;7.80;100.00;97690.91;5085383;28;20056;-82
2023/12/02 11:05:21;;;;;;;23.52;17.55;;;;;;;7.87;100.00;97696.31;5054982;28;20055;-79
2023/12/02 11:08:03;;;;;;;20.13;15.30;;;;;;;7.93;100.00;97694.81;5085950;28;20120;-78
2023/12/02 11:10:51;;;;;;;24.55;16.27;;;;;;;7.96;100.00;97699.69;5065227;28;20388;-78
2023/12/02 11:13:23;;;;;;;18.13;14.82;;;;;;;8.03;100.00;97705.91;5082612;28;20169;-78
2023/12/02 11:16:07;;;;;;;19.08;14.55;;;;;;;8.06;100.00;97711.66;5083002;28;20395;-78
2023/12/02 11:19:02;;;;;;;21.30;15.75;;;;;;;8.14;100.00;97706.34;5083416;28;20021;-80